sensor_id;sensor_type;location;lat;lon;timestamp;P1;durP1;ratioP1;P2;durP2;ratioP2
13238;SDS011;6686;51.292;4.166;2023-04-03T00:02:16;6.33;;;4.17;;
13238;SDS011;6686;51.292;4.166;2023-04-03T00:05:02;8.17;;;4.63;;
13238;SDS011;6686;51.292;4.166;2023-04-03T00:07:48;4.40;;;4.00;;
13238;SDS011;6686;51.292;4.166;2023-04-03T00:10:34;4.57;;;4.03;;
13238;SDS011;6686;51.292;4.166;2023-04-03T00:13:20;6.62;;;4.87;;
13238;SDS011;6686;51.292;4.166;2023-04-03T00:16:06;6.78;;;4.70;;
13238;SDS011;6686;51.292;4.166;2023-04-03T00:18:51;6.93;;;4.30;;
13238;SDS011;6686;51.292;4.166;2023-04-03T00:21:37;7.77;;;5.00;;
13238;SDS011;6686;51.292;4.166;2023-04-03T00:24:23;5.57;;;4.53;;
13238;SDS011;6686;51.292;4.166;2023-04-03T00:27:09;7.90;;;4.57;;
13238;SDS011;6686;51.292;4.166;2023-04-03T00:29:54;4.77;;;4.13;;
13238;SDS011;6686;51.292;4.166;2023-04-03T00:32:40;4.43;;;3.80;;
13238;SDS011;6686;51.292;4.166;2023-04-03T00:35:26;6.43;;;4.10;;
13238;SDS011;6686;51.292;4.166;2023-04-03T00:38:12;7.95;;;5.20;;
13238;SDS011;6686;51.292;4.166;2023-04-03T00:40:58;5.30;;;4.70;;
13238;SDS011;6686;51.292;4.166;2023-04-03T00:43:45;7.70;;;6.90;;
13238;SDS011;6686;51.292;4.166;2023-04-03T00:46:30;8.13;;;5.63;;
13238;SDS011;6686;51.292;4.166;2023-04-03T00:49:16;6.30;;;4.80;;
13238;SDS011;6686;51.292;4.166;2023-04-03T00:52:02;7.35;;;5.12;;
13238;SDS011;6686;51.292;4.166;2023-04-03T00:54:49;5.47;;;4.40;;
13238;SDS011;6686;51.292;4.166;2023-04-03T00:57:34;7.13;;;4.20;;
13238;SDS011;6686;51.292;4.166;2023-04-03T01:00:20;5.93;;;3.83;;
13238;SDS011;6686;51.292;4.166;2023-04-03T01:03:05;6.00;;;3.73;;
13238;SDS011;6686;51.292;4.166;2023-04-03T01:05:51;5.23;;;3.83;;
13238;SDS011;6686;51.292;4.166;2023-04-03T01:08:37;5.20;;;3.90;;
13238;SDS011;6686;51.292;4.166;2023-04-03T01:11:23;6.37;;;4.13;;
13238;SDS011;6686;51.292;4.166;2023-04-03T01:14:09;5.20;;;4.37;;
13238;SDS011;6686;51.292;4.166;2023-04-03T01:16:55;4.87;;;3.77;;
13238;SDS011;6686;51.292;4.166;2023-04-03T01:19:41;4.57;;;3.83;;
13238;SDS011;6686;51.292;4.166;2023-04-03T01:22:29;6.87;;;4.27;;
13238;SDS011;6686;51.292;4.166;2023-04-03T01:25:13;5.73;;;4.60;;
13238;SDS011;6686;51.292;4.166;2023-04-03T01:27:59;6.62;;;4.78;;
13238;SDS011;6686;51.292;4.166;2023-04-03T01:30:46;6.17;;;4.57;;
13238;SDS011;6686;51.292;4.166;2023-04-03T01:33:34;6.87;;;5.30;;
13238;SDS011;6686;51.292;4.166;2023-04-03T01:36:21;8.23;;;4.60;;
13238;SDS011;6686;51.292;4.166;2023-04-03T01:39:06;8.20;;;5.33;;
13238;SDS011;6686;51.292;4.166;2023-04-03T01:41:52;7.57;;;5.13;;
13238;SDS011;6686;51.292;4.166;2023-04-03T01:44:38;5.03;;;4.43;;
13238;SDS011;6686;51.292;4.166;2023-04-03T01:47:23;7.70;;;5.27;;
13238;SDS011;6686;51.292;4.166;2023-04-03T01:50:09;6.43;;;4.97;;
13238;SDS011;6686;51.292;4.166;2023-04-03T01:52:55;5.53;;;5.03;;
13238;SDS011;6686;51.292;4.166;2023-04-03T01:55:41;5.77;;;5.27;;
13238;SDS011;6686;51.292;4.166;2023-04-03T01:58:26;6.17;;;5.20;;
13238;SDS011;6686;51.292;4.166;2023-04-03T02:01:12;8.07;;;6.90;;
13238;SDS011;6686;51.292;4.166;2023-04-03T02:03:58;8.10;;;5.97;;
13238;SDS011;6686;51.292;4.166;2023-04-03T02:06:44;6.43;;;5.53;;
13238;SDS011;6686;51.292;4.166;2023-04-03T02:09:30;7.13;;;6.13;;
13238;SDS011;6686;51.292;4.166;2023-04-03T02:12:16;6.47;;;5.77;;
13238;SDS011;6686;51.292;4.166;2023-04-03T02:15:02;5.57;;;5.07;;
13238;SDS011;6686;51.292;4.166;2023-04-03T02:17:48;6.27;;;5.37;;
13238;SDS011;6686;51.292;4.166;2023-04-03T02:20:34;6.20;;;5.60;;
13238;SDS011;6686;51.292;4.166;2023-04-03T02:23:20;6.77;;;5.53;;
13238;SDS011;6686;51.292;4.166;2023-04-03T02:26:07;6.03;;;5.43;;
13238;SDS011;6686;51.292;4.166;2023-04-03T02:28:52;7.68;;;6.30;;
13238;SDS011;6686;51.292;4.166;2023-04-03T02:31:38;9.13;;;6.13;;
13238;SDS011;6686;51.292;4.166;2023-04-03T02:34:24;6.87;;;5.80;;
13238;SDS011;6686;51.292;4.166;2023-04-03T02:37:10;6.97;;;5.63;;
13238;SDS011;6686;51.292;4.166;2023-04-03T02:39:55;6.67;;;5.57;;
13238;SDS011;6686;51.292;4.166;2023-04-03T02:42:41;7.97;;;6.10;;
13238;SDS011;6686;51.292;4.166;2023-04-03T02:45:27;8.80;;;6.07;;
13238;SDS011;6686;51.292;4.166;2023-04-03T02:48:13;9.10;;;5.70;;
13238;SDS011;6686;51.292;4.166;2023-04-03T02:50:59;10.57;;;6.13;;
13238;SDS011;6686;51.292;4.166;2023-04-03T02:53:45;7.97;;;5.47;;
13238;SDS011;6686;51.292;4.166;2023-04-03T02:56:31;9.57;;;6.10;;
13238;SDS011;6686;51.292;4.166;2023-04-03T02:59:17;6.13;;;5.63;;
13238;SDS011;6686;51.292;4.166;2023-04-03T03:02:03;7.67;;;5.97;;
13238;SDS011;6686;51.292;4.166;2023-04-03T03:04:48;7.10;;;6.03;;
13238;SDS011;6686;51.292;4.166;2023-04-03T03:07:35;6.97;;;5.87;;
13238;SDS011;6686;51.292;4.166;2023-04-03T03:10:21;7.13;;;6.40;;
13238;SDS011;6686;51.292;4.166;2023-04-03T03:13:07;6.87;;;5.37;;
13238;SDS011;6686;51.292;4.166;2023-04-03T03:15:52;6.93;;;5.87;;
13238;SDS011;6686;51.292;4.166;2023-04-03T03:18:38;7.40;;;5.87;;
13238;SDS011;6686;51.292;4.166;2023-04-03T03:21:24;11.10;;;6.00;;
13238;SDS011;6686;51.292;4.166;2023-04-03T03:24:10;6.43;;;5.77;;
13238;SDS011;6686;51.292;4.166;2023-04-03T03:26:56;7.10;;;6.10;;
13238;SDS011;6686;51.292;4.166;2023-04-03T03:29:42;6.97;;;6.07;;
13238;SDS011;6686;51.292;4.166;2023-04-03T03:32:27;7.77;;;5.73;;
13238;SDS011;6686;51.292;4.166;2023-04-03T03:35:13;6.00;;;5.50;;
13238;SDS011;6686;51.292;4.166;2023-04-03T03:37:59;9.07;;;5.90;;
13238;SDS011;6686;51.292;4.166;2023-04-03T03:40:46;6.67;;;5.47;;
13238;SDS011;6686;51.292;4.166;2023-04-03T03:43:31;8.67;;;6.50;;
13238;SDS011;6686;51.292;4.166;2023-04-03T03:46:17;7.67;;;6.33;;
13238;SDS011;6686;51.292;4.166;2023-04-03T03:49:03;10.10;;;5.70;;
13238;SDS011;6686;51.292;4.166;2023-04-03T03:51:48;6.90;;;5.47;;
13238;SDS011;6686;51.292;4.166;2023-04-03T03:54:34;7.70;;;6.27;;
13238;SDS011;6686;51.292;4.166;2023-04-03T03:57:20;6.93;;;5.80;;
13238;SDS011;6686;51.292;4.166;2023-04-03T04:00:06;10.73;;;5.90;;
13238;SDS011;6686;51.292;4.166;2023-04-03T04:02:52;7.47;;;6.30;;
13238;SDS011;6686;51.292;4.166;2023-04-03T04:05:38;9.83;;;6.27;;
13238;SDS011;6686;51.292;4.166;2023-04-03T04:08:24;6.67;;;5.93;;
13238;SDS011;6686;51.292;4.166;2023-04-03T04:11:10;7.43;;;6.40;;
13238;SDS011;6686;51.292;4.166;2023-04-03T04:13:56;6.87;;;5.73;;
13238;SDS011;6686;51.292;4.166;2023-04-03T04:16:42;7.20;;;5.37;;
13238;SDS011;6686;51.292;4.166;2023-04-03T04:19:28;6.83;;;5.97;;
13238;SDS011;6686;51.292;4.166;2023-04-03T04:22:14;6.77;;;5.33;;
13238;SDS011;6686;51.292;4.166;2023-04-03T04:24:59;5.83;;;5.20;;
13238;SDS011;6686;51.292;4.166;2023-04-03T04:27:45;7.27;;;5.80;;
13238;SDS011;6686;51.292;4.166;2023-04-03T04:30:31;7.30;;;5.87;;
13238;SDS011;6686;51.292;4.166;2023-04-03T04:33:17;6.10;;;5.30;;
13238;SDS011;6686;51.292;4.166;2023-04-03T04:36:03;9.90;;;5.90;;
13238;SDS011;6686;51.292;4.166;2023-04-03T04:38:48;11.30;;;6.43;;
13238;SDS011;6686;51.292;4.166;2023-04-03T04:41:35;6.60;;;5.80;;
13238;SDS011;6686;51.292;4.166;2023-04-03T04:44:21;7.47;;;6.65;;
13238;SDS011;6686;51.292;4.166;2023-04-03T04:47:07;8.47;;;5.80;;
13238;SDS011;6686;51.292;4.166;2023-04-03T04:49:53;7.50;;;5.70;;
13238;SDS011;6686;51.292;4.166;2023-04-03T04:52:39;6.97;;;5.37;;
13238;SDS011;6686;51.292;4.166;2023-04-03T04:55:25;6.57;;;5.20;;
13238;SDS011;6686;51.292;4.166;2023-04-03T04:58:10;7.77;;;6.50;;
13238;SDS011;6686;51.292;4.166;2023-04-03T05:01:00;6.13;;;5.20;;
13238;SDS011;6686;51.292;4.166;2023-04-03T05:03:45;7.57;;;5.97;;
13238;SDS011;6686;51.292;4.166;2023-04-03T05:06:32;7.27;;;5.90;;
13238;SDS011;6686;51.292;4.166;2023-04-03T05:09:17;7.30;;;5.53;;
13238;SDS011;6686;51.292;4.166;2023-04-03T05:12:03;10.07;;;6.37;;
13238;SDS011;6686;51.292;4.166;2023-04-03T05:14:49;6.47;;;5.87;;
13238;SDS011;6686;51.292;4.166;2023-04-03T05:17:35;8.20;;;5.87;;
13238;SDS011;6686;51.292;4.166;2023-04-03T05:20:21;6.93;;;5.37;;
13238;SDS011;6686;51.292;4.166;2023-04-03T05:23:09;7.97;;;6.30;;
13238;SDS011;6686;51.292;4.166;2023-04-03T05:25:55;8.18;;;6.78;;
13238;SDS011;6686;51.292;4.166;2023-04-03T05:28:41;6.37;;;5.70;;
13238;SDS011;6686;51.292;4.166;2023-04-03T05:31:26;6.63;;;5.73;;
13238;SDS011;6686;51.292;4.166;2023-04-03T05:34:13;6.13;;;5.40;;
13238;SDS011;6686;51.292;4.166;2023-04-03T05:36:58;7.80;;;6.60;;
13238;SDS011;6686;51.292;4.166;2023-04-03T05:39:44;7.80;;;6.47;;
13238;SDS011;6686;51.292;4.166;2023-04-03T05:42:30;6.63;;;5.83;;
13238;SDS011;6686;51.292;4.166;2023-04-03T05:45:16;6.57;;;5.97;;
13238;SDS011;6686;51.292;4.166;2023-04-03T05:48:02;5.43;;;4.93;;
13238;SDS011;6686;51.292;4.166;2023-04-03T05:50:48;12.63;;;6.93;;
13238;SDS011;6686;51.292;4.166;2023-04-03T05:53:35;7.43;;;6.45;;
13238;SDS011;6686;51.292;4.166;2023-04-03T05:56:19;8.03;;;5.80;;
13238;SDS011;6686;51.292;4.166;2023-04-03T05:59:05;6.00;;;5.30;;
13238;SDS011;6686;51.292;4.166;2023-04-03T06:01:51;7.83;;;5.77;;
13238;SDS011;6686;51.292;4.166;2023-04-03T06:04:37;5.97;;;5.13;;
13238;SDS011;6686;51.292;4.166;2023-04-03T06:07:23;7.83;;;5.20;;
13238;SDS011;6686;51.292;4.166;2023-04-03T06:10:10;8.60;;;6.57;;
13238;SDS011;6686;51.292;4.166;2023-04-03T06:12:55;7.05;;;6.35;;
13238;SDS011;6686;51.292;4.166;2023-04-03T06:15:41;7.47;;;5.73;;
13238;SDS011;6686;51.292;4.166;2023-04-03T06:18:27;6.53;;;5.50;;
13238;SDS011;6686;51.292;4.166;2023-04-03T06:21:12;5.93;;;5.37;;
13238;SDS011;6686;51.292;4.166;2023-04-03T06:23:59;7.03;;;5.70;;
13238;SDS011;6686;51.292;4.166;2023-04-03T06:26:45;6.13;;;5.53;;
13238;SDS011;6686;51.292;4.166;2023-04-03T06:29:31;5.30;;;4.80;;
13238;SDS011;6686;51.292;4.166;2023-04-03T06:32:17;7.67;;;5.80;;
13238;SDS011;6686;51.292;4.166;2023-04-03T06:35:04;6.23;;;5.33;;
13238;SDS011;6686;51.292;4.166;2023-04-03T06:37:49;6.00;;;5.03;;
13238;SDS011;6686;51.292;4.166;2023-04-03T06:40:35;8.03;;;6.50;;
13238;SDS011;6686;51.292;4.166;2023-04-03T06:43:21;8.40;;;5.73;;
13238;SDS011;6686;51.292;4.166;2023-04-03T06:46:09;6.87;;;5.72;;
13238;SDS011;6686;51.292;4.166;2023-04-03T06:48:52;5.07;;;4.60;;
13238;SDS011;6686;51.292;4.166;2023-04-03T06:51:38;5.70;;;5.10;;
13238;SDS011;6686;51.292;4.166;2023-04-03T06:54:25;4.67;;;3.87;;
13238;SDS011;6686;51.292;4.166;2023-04-03T06:57:11;6.12;;;5.00;;
13238;SDS011;6686;51.292;4.166;2023-04-03T06:59:57;7.62;;;5.20;;
13238;SDS011;6686;51.292;4.166;2023-04-03T07:02:43;12.07;;;4.60;;
13238;SDS011;6686;51.292;4.166;2023-04-03T07:05:28;7.30;;;4.80;;
13238;SDS011;6686;51.292;4.166;2023-04-03T07:08:14;7.37;;;4.10;;
13238;SDS011;6686;51.292;4.166;2023-04-03T07:11:00;7.37;;;4.90;;
13238;SDS011;6686;51.292;4.166;2023-04-03T07:13:46;7.67;;;4.97;;
13238;SDS011;6686;51.292;4.166;2023-04-03T07:16:33;5.00;;;3.40;;
13238;SDS011;6686;51.292;4.166;2023-04-03T07:19:18;7.28;;;4.60;;
13238;SDS011;6686;51.292;4.166;2023-04-03T07:22:04;6.53;;;4.63;;
13238;SDS011;6686;51.292;4.166;2023-04-03T07:24:50;7.23;;;4.50;;
13238;SDS011;6686;51.292;4.166;2023-04-03T07:27:36;4.80;;;4.00;;
13238;SDS011;6686;51.292;4.166;2023-04-03T07:30:22;6.15;;;4.07;;
13238;SDS011;6686;51.292;4.166;2023-04-03T07:33:08;6.30;;;3.90;;
13238;SDS011;6686;51.292;4.166;2023-04-03T07:35:54;6.47;;;3.70;;
13238;SDS011;6686;51.292;4.166;2023-04-03T07:38:40;6.63;;;3.77;;
13238;SDS011;6686;51.292;4.166;2023-04-03T07:41:26;5.23;;;3.13;;
13238;SDS011;6686;51.292;4.166;2023-04-03T07:44:12;4.57;;;3.43;;
13238;SDS011;6686;51.292;4.166;2023-04-03T07:46:58;7.03;;;3.33;;
13238;SDS011;6686;51.292;4.166;2023-04-03T07:49:44;4.53;;;3.60;;
13238;SDS011;6686;51.292;4.166;2023-04-03T07:52:30;5.00;;;3.43;;
13238;SDS011;6686;51.292;4.166;2023-04-03T07:55:16;4.03;;;2.70;;
13238;SDS011;6686;51.292;4.166;2023-04-03T07:58:01;5.90;;;3.30;;
13238;SDS011;6686;51.292;4.166;2023-04-03T08:00:48;5.90;;;3.10;;
13238;SDS011;6686;51.292;4.166;2023-04-03T08:03:34;7.40;;;3.57;;
13238;SDS011;6686;51.292;4.166;2023-04-03T08:06:19;5.63;;;3.77;;
13238;SDS011;6686;51.292;4.166;2023-04-03T08:09:05;4.73;;;3.07;;
13238;SDS011;6686;51.292;4.166;2023-04-03T08:11:51;4.57;;;3.00;;
13238;SDS011;6686;51.292;4.166;2023-04-03T08:14:37;5.37;;;2.87;;
13238;SDS011;6686;51.292;4.166;2023-04-03T08:17:23;5.40;;;3.10;;
13238;SDS011;6686;51.292;4.166;2023-04-03T08:20:09;6.37;;;3.43;;
13238;SDS011;6686;51.292;4.166;2023-04-03T08:22:55;5.20;;;3.50;;
13238;SDS011;6686;51.292;4.166;2023-04-03T08:25:41;4.13;;;3.50;;
13238;SDS011;6686;51.292;4.166;2023-04-03T08:28:27;3.03;;;2.73;;
13238;SDS011;6686;51.292;4.166;2023-04-03T08:31:14;4.07;;;2.75;;
13238;SDS011;6686;51.292;4.166;2023-04-03T08:33:59;5.63;;;3.77;;
13238;SDS011;6686;51.292;4.166;2023-04-03T08:36:45;4.77;;;3.07;;
13238;SDS011;6686;51.292;4.166;2023-04-03T08:39:30;5.70;;;2.60;;
13238;SDS011;6686;51.292;4.166;2023-04-03T08:42:24;7.03;;;2.70;;
13238;SDS011;6686;51.292;4.166;2023-04-03T08:45:09;4.00;;;2.27;;
13238;SDS011;6686;51.292;4.166;2023-04-03T08:47:59;5.13;;;2.30;;
13238;SDS011;6686;51.292;4.166;2023-04-03T08:50:43;3.17;;;2.27;;
13238;SDS011;6686;51.292;4.166;2023-04-03T08:53:29;3.87;;;2.37;;
13238;SDS011;6686;51.292;4.166;2023-04-03T08:56:14;6.72;;;2.67;;
13238;SDS011;6686;51.292;4.166;2023-04-03T08:59:01;3.37;;;2.37;;
13238;SDS011;6686;51.292;4.166;2023-04-03T09:01:46;4.47;;;2.23;;
13238;SDS011;6686;51.292;4.166;2023-04-03T09:04:32;2.73;;;2.00;;
13238;SDS011;6686;51.292;4.166;2023-04-03T09:07:22;2.67;;;1.67;;
13238;SDS011;6686;51.292;4.166;2023-04-03T09:10:04;4.20;;;2.10;;
13238;SDS011;6686;51.292;4.166;2023-04-03T09:12:53;5.47;;;2.00;;
13238;SDS011;6686;51.292;4.166;2023-04-03T09:15:36;2.70;;;1.70;;
13238;SDS011;6686;51.292;4.166;2023-04-03T09:18:36;5.10;;;1.87;;
13238;SDS011;6686;51.292;4.166;2023-04-03T09:21:21;4.83;;;2.33;;
13238;SDS011;6686;51.292;4.166;2023-04-03T09:24:06;5.30;;;1.90;;
13238;SDS011;6686;51.292;4.166;2023-04-03T09:26:59;4.30;;;2.10;;
13238;SDS011;6686;51.292;4.166;2023-04-03T09:29:44;3.75;;;2.33;;
13238;SDS011;6686;51.292;4.166;2023-04-03T09:32:30;3.30;;;2.10;;
13238;SDS011;6686;51.292;4.166;2023-04-03T09:41:07;3.20;;;2.40;;
13238;SDS011;6686;51.292;4.166;2023-04-03T09:43:53;5.27;;;2.27;;
13238;SDS011;6686;51.292;4.166;2023-04-03T09:46:39;2.50;;;2.30;;
13238;SDS011;6686;51.292;4.166;2023-04-03T09:49:24;6.27;;;2.27;;
13238;SDS011;6686;51.292;4.166;2023-04-03T09:52:22;3.63;;;2.20;;
13238;SDS011;6686;51.292;4.166;2023-04-03T09:55:16;2.40;;;2.20;;
13238;SDS011;6686;51.292;4.166;2023-04-03T09:58:02;2.60;;;1.93;;
13238;SDS011;6686;51.292;4.166;2023-04-03T10:00:53;4.55;;;2.35;;
13238;SDS011;6686;51.292;4.166;2023-04-03T10:03:34;4.30;;;1.80;;
13238;SDS011;6686;51.292;4.166;2023-04-03T10:06:23;2.70;;;1.90;;
13238;SDS011;6686;51.292;4.166;2023-04-03T10:09:18;4.53;;;2.27;;
13238;SDS011;6686;51.292;4.166;2023-04-03T10:12:06;4.37;;;2.20;;
13238;SDS011;6686;51.292;4.166;2023-04-03T10:14:55;3.70;;;2.40;;
13238;SDS011;6686;51.292;4.166;2023-04-03T10:20:48;2.90;;;1.70;;
13238;SDS011;6686;51.292;4.166;2023-04-03T10:23:44;3.57;;;1.90;;
13238;SDS011;6686;51.292;4.166;2023-04-03T10:29:16;6.43;;;1.77;;
13238;SDS011;6686;51.292;4.166;2023-04-03T10:38:30;3.07;;;1.80;;
13238;SDS011;6686;51.292;4.166;2023-04-03T10:44:45;3.77;;;1.90;;
13238;SDS011;6686;51.292;4.166;2023-04-03T10:47:30;4.53;;;1.63;;
13238;SDS011;6686;51.292;4.166;2023-04-03T10:50:36;4.50;;;2.10;;
13238;SDS011;6686;51.292;4.166;2023-04-03T10:53:20;4.43;;;1.97;;
13238;SDS011;6686;51.292;4.166;2023-04-03T11:02:28;2.63;;;1.80;;
13238;SDS011;6686;51.292;4.166;2023-04-03T11:05:22;3.77;;;1.97;;
13238;SDS011;6686;51.292;4.166;2023-04-03T11:08:13;3.15;;;1.85;;
13238;SDS011;6686;51.292;4.166;2023-04-03T11:10:57;2.80;;;1.60;;
13238;SDS011;6686;51.292;4.166;2023-04-03T11:13:49;3.13;;;2.10;;
13238;SDS011;6686;51.292;4.166;2023-04-03T11:16:33;3.97;;;2.00;;
13238;SDS011;6686;51.292;4.166;2023-04-03T11:19:18;2.60;;;1.87;;
13238;SDS011;6686;51.292;4.166;2023-04-03T11:25:10;2.50;;;1.60;;
13238;SDS011;6686;51.292;4.166;2023-04-03T11:28:02;2.40;;;1.57;;
13238;SDS011;6686;51.292;4.166;2023-04-03T11:33:48;2.53;;;1.50;;
13238;SDS011;6686;51.292;4.166;2023-04-03T11:36:42;1.50;;;1.40;;
13238;SDS011;6686;51.292;4.166;2023-04-03T11:39:29;3.30;;;1.80;;
13238;SDS011;6686;51.292;4.166;2023-04-03T11:45:16;2.10;;;1.60;;
13238;SDS011;6686;51.292;4.166;2023-04-03T11:48:02;2.00;;;1.60;;
13238;SDS011;6686;51.292;4.166;2023-04-03T11:50:47;5.00;;;1.70;;
13238;SDS011;6686;51.292;4.166;2023-04-03T11:59:14;3.07;;;1.60;;
13238;SDS011;6686;51.292;4.166;2023-04-03T12:01:59;2.37;;;1.33;;
13238;SDS011;6686;51.292;4.166;2023-04-03T12:05:23;2.47;;;1.57;;
13238;SDS011;6686;51.292;4.166;2023-04-03T12:07:31;1.50;;;1.40;;
13238;SDS011;6686;51.292;4.166;2023-04-03T12:10:17;2.70;;;1.30;;
13238;SDS011;6686;51.292;4.166;2023-04-03T12:13:12;4.13;;;1.40;;
13238;SDS011;6686;51.292;4.166;2023-04-03T12:15:50;2.00;;;1.67;;
13238;SDS011;6686;51.292;4.166;2023-04-03T12:24:34;2.47;;;1.50;;
13238;SDS011;6686;51.292;4.166;2023-04-03T12:30:16;1.80;;;1.57;;
13238;SDS011;6686;51.292;4.166;2023-04-03T12:33:13;1.60;;;1.40;;
13238;SDS011;6686;51.292;4.166;2023-04-03T12:41:41;2.13;;;1.60;;
13238;SDS011;6686;51.292;4.166;2023-04-03T12:47:26;1.80;;;1.27;;
13238;SDS011;6686;51.292;4.166;2023-04-03T12:50:27;2.23;;;1.47;;
13238;SDS011;6686;51.292;4.166;2023-04-03T12:53:15;1.70;;;1.60;;
13238;SDS011;6686;51.292;4.166;2023-04-03T12:59:27;2.70;;;1.57;;
13238;SDS011;6686;51.292;4.166;2023-04-03T13:02:26;1.60;;;1.43;;
13238;SDS011;6686;51.292;4.166;2023-04-03T13:05:17;2.87;;;1.40;;
13238;SDS011;6686;51.292;4.166;2023-04-03T13:08:04;1.40;;;1.27;;
13238;SDS011;6686;51.292;4.166;2023-04-03T13:10:56;2.10;;;1.40;;
13238;SDS011;6686;51.292;4.166;2023-04-03T13:13:59;1.17;;;1.07;;
13238;SDS011;6686;51.292;4.166;2023-04-03T13:16:59;2.57;;;1.50;;
13238;SDS011;6686;51.292;4.166;2023-04-03T13:20:09;3.10;;;1.70;;
13238;SDS011;6686;51.292;4.166;2023-04-03T13:25:37;2.28;;;1.48;;
13238;SDS011;6686;51.292;4.166;2023-04-03T13:28:22;5.37;;;1.60;;
13238;SDS011;6686;51.292;4.166;2023-04-03T13:34:07;1.73;;;1.40;;
13238;SDS011;6686;51.292;4.166;2023-04-03T13:36:56;1.97;;;1.37;;
13238;SDS011;6686;51.292;4.166;2023-04-03T13:39:44;2.00;;;1.53;;
13238;SDS011;6686;51.292;4.166;2023-04-03T13:42:34;2.00;;;1.30;;
13238;SDS011;6686;51.292;4.166;2023-04-03T13:45:21;3.07;;;1.63;;
13238;SDS011;6686;51.292;4.166;2023-04-03T13:48:09;2.23;;;1.50;;
13238;SDS011;6686;51.292;4.166;2023-04-03T13:51:01;2.73;;;1.60;;
13238;SDS011;6686;51.292;4.166;2023-04-03T13:53:50;2.03;;;1.60;;
13238;SDS011;6686;51.292;4.166;2023-04-03T13:56:38;1.43;;;1.33;;
13238;SDS011;6686;51.292;4.166;2023-04-03T13:59:28;1.70;;;1.23;;
13238;SDS011;6686;51.292;4.166;2023-04-03T14:04:57;1.83;;;1.30;;
13238;SDS011;6686;51.292;4.166;2023-04-03T14:07:41;2.47;;;1.50;;
13238;SDS011;6686;51.292;4.166;2023-04-03T14:10:27;2.77;;;1.53;;
13238;SDS011;6686;51.292;4.166;2023-04-03T14:13:13;2.63;;;1.43;;
13238;SDS011;6686;51.292;4.166;2023-04-03T14:16:01;1.33;;;1.10;;
13238;SDS011;6686;51.292;4.166;2023-04-03T14:18:48;2.75;;;1.60;;
13238;SDS011;6686;51.292;4.166;2023-04-03T14:21:43;1.87;;;1.23;;
13238;SDS011;6686;51.292;4.166;2023-04-03T14:24:25;3.47;;;1.23;;
13238;SDS011;6686;51.292;4.166;2023-04-03T14:27:17;3.13;;;1.60;;
13238;SDS011;6686;51.292;4.166;2023-04-03T14:30:00;2.50;;;1.20;;
13238;SDS011;6686;51.292;4.166;2023-04-03T14:32:46;2.33;;;1.40;;
13238;SDS011;6686;51.292;4.166;2023-04-03T14:39:05;2.30;;;1.50;;
13238;SDS011;6686;51.292;4.166;2023-04-03T14:41:53;2.53;;;1.40;;
13238;SDS011;6686;51.292;4.166;2023-04-03T14:44:45;2.90;;;1.50;;
13238;SDS011;6686;51.292;4.166;2023-04-03T14:47:33;1.20;;;1.10;;
13238;SDS011;6686;51.292;4.166;2023-04-03T14:50:24;2.67;;;1.57;;
13238;SDS011;6686;51.292;4.166;2023-04-03T14:53:05;3.17;;;1.47;;
13238;SDS011;6686;51.292;4.166;2023-04-03T14:55:51;2.27;;;1.33;;
13238;SDS011;6686;51.292;4.166;2023-04-03T14:58:37;1.50;;;1.23;;
13238;SDS011;6686;51.292;4.166;2023-04-03T15:01:23;2.10;;;1.50;;
13238;SDS011;6686;51.292;4.166;2023-04-03T15:04:13;2.90;;;1.50;;
13238;SDS011;6686;51.292;4.166;2023-04-03T15:06:58;1.30;;;1.20;;
13238;SDS011;6686;51.292;4.166;2023-04-03T15:09:44;2.03;;;1.30;;
13238;SDS011;6686;51.292;4.166;2023-04-03T15:12:30;2.20;;;1.50;;
13238;SDS011;6686;51.292;4.166;2023-04-03T15:15:17;3.43;;;1.40;;
13238;SDS011;6686;51.292;4.166;2023-04-03T15:18:02;1.80;;;1.40;;
13238;SDS011;6686;51.292;4.166;2023-04-03T15:20:48;1.40;;;1.30;;
13238;SDS011;6686;51.292;4.166;2023-04-03T15:23:34;1.80;;;1.30;;
13238;SDS011;6686;51.292;4.166;2023-04-03T15:26:20;1.90;;;1.60;;
13238;SDS011;6686;51.292;4.166;2023-04-03T15:29:06;2.73;;;1.50;;
13238;SDS011;6686;51.292;4.166;2023-04-03T15:31:52;2.87;;;1.60;;
13238;SDS011;6686;51.292;4.166;2023-04-03T15:34:38;1.30;;;1.20;;
13238;SDS011;6686;51.292;4.166;2023-04-03T15:37:24;1.80;;;1.40;;
13238;SDS011;6686;51.292;4.166;2023-04-03T15:40:10;2.07;;;1.30;;
13238;SDS011;6686;51.292;4.166;2023-04-03T15:42:56;2.87;;;1.30;;
13238;SDS011;6686;51.292;4.166;2023-04-03T15:45:42;1.90;;;1.43;;
13238;SDS011;6686;51.292;4.166;2023-04-03T15:48:33;1.93;;;1.80;;
13238;SDS011;6686;51.292;4.166;2023-04-03T15:51:14;2.00;;;1.47;;
13238;SDS011;6686;51.292;4.166;2023-04-03T15:54:00;2.53;;;1.40;;
13238;SDS011;6686;51.292;4.166;2023-04-03T15:56:46;1.80;;;1.40;;
13238;SDS011;6686;51.292;4.166;2023-04-03T15:59:32;3.30;;;1.43;;
13238;SDS011;6686;51.292;4.166;2023-04-03T16:02:18;2.10;;;1.50;;
13238;SDS011;6686;51.292;4.166;2023-04-03T16:05:03;3.63;;;1.50;;
13238;SDS011;6686;51.292;4.166;2023-04-03T16:07:49;3.03;;;1.70;;
13238;SDS011;6686;51.292;4.166;2023-04-03T16:10:36;2.47;;;1.53;;
13238;SDS011;6686;51.292;4.166;2023-04-03T16:13:22;2.30;;;1.80;;
13238;SDS011;6686;51.292;4.166;2023-04-03T16:16:07;2.87;;;1.83;;
13238;SDS011;6686;51.292;4.166;2023-04-03T16:18:54;5.60;;;2.25;;
13238;SDS011;6686;51.292;4.166;2023-04-03T16:21:40;2.33;;;1.60;;
13238;SDS011;6686;51.292;4.166;2023-04-03T16:24:26;3.30;;;1.67;;
13238;SDS011;6686;51.292;4.166;2023-04-03T16:27:12;3.70;;;1.70;;
13238;SDS011;6686;51.292;4.166;2023-04-03T16:29:57;3.33;;;1.97;;
13238;SDS011;6686;51.292;4.166;2023-04-03T16:32:43;1.93;;;1.70;;
13238;SDS011;6686;51.292;4.166;2023-04-03T16:35:29;3.57;;;1.93;;
13238;SDS011;6686;51.292;4.166;2023-04-03T16:38:15;1.80;;;1.70;;
13238;SDS011;6686;51.292;4.166;2023-04-03T16:41:01;3.73;;;2.00;;
13238;SDS011;6686;51.292;4.166;2023-04-03T16:43:47;3.30;;;2.00;;
13238;SDS011;6686;51.292;4.166;2023-04-03T16:46:33;3.90;;;2.00;;
13238;SDS011;6686;51.292;4.166;2023-04-03T16:49:19;2.40;;;1.70;;
13238;SDS011;6686;51.292;4.166;2023-04-03T16:52:05;2.73;;;2.07;;
13238;SDS011;6686;51.292;4.166;2023-04-03T16:54:51;2.73;;;2.10;;
13238;SDS011;6686;51.292;4.166;2023-04-03T16:57:37;2.83;;;2.20;;
13238;SDS011;6686;51.292;4.166;2023-04-03T17:00:23;2.53;;;2.27;;
13238;SDS011;6686;51.292;4.166;2023-04-03T17:03:09;2.50;;;1.77;;
13238;SDS011;6686;51.292;4.166;2023-04-03T17:05:55;2.60;;;2.00;;
13238;SDS011;6686;51.292;4.166;2023-04-03T17:08:45;3.30;;;2.20;;
13238;SDS011;6686;51.292;4.166;2023-04-03T17:11:30;4.37;;;2.10;;
13238;SDS011;6686;51.292;4.166;2023-04-03T17:14:16;5.10;;;2.07;;
13238;SDS011;6686;51.292;4.166;2023-04-03T17:17:02;3.30;;;2.03;;
13238;SDS011;6686;51.292;4.166;2023-04-03T17:19:48;3.97;;;1.87;;
13238;SDS011;6686;51.292;4.166;2023-04-03T17:22:34;2.43;;;1.87;;
13238;SDS011;6686;51.292;4.166;2023-04-03T17:25:19;3.10;;;2.33;;
13238;SDS011;6686;51.292;4.166;2023-04-03T17:28:05;3.63;;;2.10;;
13238;SDS011;6686;51.292;4.166;2023-04-03T17:30:51;4.67;;;2.33;;
13238;SDS011;6686;51.292;4.166;2023-04-03T17:33:37;3.20;;;1.80;;
13238;SDS011;6686;51.292;4.166;2023-04-03T17:36:23;3.43;;;2.17;;
13238;SDS011;6686;51.292;4.166;2023-04-03T17:39:09;3.87;;;2.23;;
13238;SDS011;6686;51.292;4.166;2023-04-03T17:41:55;3.30;;;2.27;;
13238;SDS011;6686;51.292;4.166;2023-04-03T17:44:41;2.70;;;2.30;;
13238;SDS011;6686;51.292;4.166;2023-04-03T17:47:27;2.90;;;2.10;;
13238;SDS011;6686;51.292;4.166;2023-04-03T17:50:13;3.97;;;2.23;;
13238;SDS011;6686;51.292;4.166;2023-04-03T17:52:59;3.57;;;2.07;;
13238;SDS011;6686;51.292;4.166;2023-04-03T17:55:45;3.77;;;1.87;;
13238;SDS011;6686;51.292;4.166;2023-04-03T17:58:31;4.62;;;2.30;;
13238;SDS011;6686;51.292;4.166;2023-04-03T18:01:19;3.17;;;2.13;;
13238;SDS011;6686;51.292;4.166;2023-04-03T18:04:03;3.67;;;2.17;;
13238;SDS011;6686;51.292;4.166;2023-04-03T18:06:50;2.73;;;2.10;;
13238;SDS011;6686;51.292;4.166;2023-04-03T18:09:35;5.03;;;2.10;;
13238;SDS011;6686;51.292;4.166;2023-04-03T18:12:21;3.33;;;2.23;;
13238;SDS011;6686;51.292;4.166;2023-04-03T18:15:07;4.60;;;2.63;;